Terminal Aerodrome Forecast
Issued by NWS

Home | Current Version | Previous Version | Text Only | Print | Product List | Glossary On
Versions: 1 2 3 4 5 6 7 8 9 10 11 12 13
000
FTUS46 KLOX 170500
TAFOXR
TAF
KOXR 170522Z 1706/1806 28006KT P6SM FEW250
     FM171000 VRB03KT 4SM BR SCT004
     FM171600 27008KT P6SM SKC
     FM172000 28015KT P6SM FEW100
     FM180400 27008KT 5SM BR SCT005=

USA.gov is the U.S. government's official web portal to all federal, state and local government web resources and services.